Time;durP1;ratioP1;P1;durP2;ratioP2;P2;SDS_P1;SDS_P2;PMS_P1;PMS_P2;Temp;Humidity;BMP_temperature;BMP_pressure;BME280_temperature;BME280_humidity;BME280_pressure;Samples;Min_cycle;Max_cycle;Signal;HPM_P1;HPM_P2
2022/10/23 00:01:21;;;;;;;;;5.67;5.00;;;;;-147.17;100.00;-15917.19;5065482;28;51793;-42
2022/10/23 00:03:50;;;;;;;;;5.00;5.00;;;;;-147.17;100.00;-15917.19;5072409;28;51173;-42
2022/10/23 00:06:15;;;;;;;;;6.67;6.00;;;;;-147.17;100.00;-15917.19;5077042;27;51702;-41
2022/10/23 00:08:41;;;;;;;;;8.67;8.33;;;;;-147.17;100.00;-15917.19;5072999;27;51265;-41
2022/10/23 00:11:08;;;;;;;;;6.67;6.67;;;;;-147.17;100.00;-15917.19;5070533;28;51162;-42
2022/10/23 00:13:34;;;;;;;;;7.67;7.67;;;;;-147.17;100.00;-15917.19;5072388;28;51112;-42
2022/10/23 00:15:59;;;;;;;;;7.00;7.00;;;;;-147.17;100.00;-15917.19;5072630;28;51133;-41
2022/10/23 00:18:24;;;;;;;;;9.00;8.00;;;;;-147.17;100.00;-15917.19;5073365;28;50967;-42
2022/10/23 00:20:50;;;;;;;;;10.33;9.33;;;;;-147.17;100.00;-15917.19;5072388;28;51807;-42
2022/10/23 00:23:15;;;;;;;;;8.00;8.00;;;;;-147.17;100.00;-15917.19;5073068;28;51100;-42
2022/10/23 00:25:41;;;;;;;;;8.67;8.00;;;;;-147.17;100.00;-15917.19;5072878;28;51181;-42
2022/10/23 00:28:06;;;;;;;;;7.00;7.00;;;;;-147.17;100.00;-15917.19;5071768;28;51314;-42
2022/10/23 00:30:32;;;;;;;;;7.00;7.00;;;;;-147.17;100.00;-15917.19;5072205;28;51734;-42
2022/10/23 00:32:57;;;;;;;;;5.67;5.67;;;;;-147.17;100.00;-15917.19;5073317;28;50850;-42
2022/10/23 00:35:22;;;;;;;;;5.67;5.67;;;;;-147.17;100.00;-15917.19;5072791;28;51254;-42
2022/10/23 00:37:48;;;;;;;;;5.33;5.33;;;;;-147.17;100.00;-15917.19;5054696;28;51084;-42
2022/10/23 00:40:13;;;;;;;;;8.33;6.00;;;;;-147.17;100.00;-15917.19;5072345;28;55633;-42
2022/10/23 00:42:38;;;;;;;;;6.00;5.00;;;;;-147.17;100.00;-15917.19;5072539;28;51011;-42
2022/10/23 00:45:13;;;;;;;;;6.00;5.67;;;;;-147.17;100.00;-15917.19;5052865;28;51172;-42
2022/10/23 00:47:38;;;;;;;;;7.00;6.33;;;;;-147.17;100.00;-15917.19;5066361;28;51177;-42
2022/10/23 00:50:04;;;;;;;;;6.00;6.00;;;;;-147.17;100.00;-15917.19;5072003;28;51277;-42
2022/10/23 00:52:32;;;;;;;;;5.33;5.33;;;;;-147.17;100.00;-15917.19;5069790;28;51227;-42
2022/10/23 00:54:57;;;;;;;;;8.00;6.00;;;;;-147.17;100.00;-15917.19;5072083;28;51313;-41
2022/10/23 00:57:23;;;;;;;;;4.00;4.00;;;;;-147.17;100.00;-15917.19;5071285;28;51091;-42
2022/10/23 00:59:49;;;;;;;;;7.00;7.00;;;;;-147.17;100.00;-15917.19;5072924;27;52204;-42
2022/10/23 01:02:14;;;;;;;;;8.00;7.00;;;;;-147.17;100.00;-15917.19;5068914;28;53517;-41
2022/10/23 01:04:39;;;;;;;;;6.00;6.00;;;;;-147.17;100.00;-15917.19;5071288;28;51584;-42
2022/10/23 01:07:52;;;;;;;;;6.67;6.67;;;;;-147.17;100.00;-15917.19;5070598;28;51056;-43
2022/10/23 01:10:31;;;;;;;;;4.67;4.67;;;;;-147.17;100.00;-15917.19;4989371;28;51791;-42
2022/10/23 01:13:11;;;;;;;;;5.00;5.00;;;;;-147.17;100.00;-15917.19;5044169;28;51031;-42
2022/10/23 01:15:46;;;;;;;;;6.67;6.00;;;;;-147.17;100.00;-15917.19;5071551;28;51033;-42
2022/10/23 01:18:24;;;;;;;;;5.67;5.33;;;;;-147.17;100.00;-15917.19;5067435;28;51281;-46
2022/10/23 01:20:58;;;;;;;;;6.67;6.67;;;;;-147.17;100.00;-15917.19;5071590;28;51709;-41
2022/10/23 01:23:51;;;;;;;;;5.33;4.33;;;;;-147.17;100.00;-15917.19;5070853;28;51082;-43
2022/10/23 01:26:26;;;;;;;;;5.00;5.00;;;;;-147.17;100.00;-15917.19;5074354;28;51404;-42
2022/10/23 01:29:08;;;;;;;;;4.33;4.00;;;;;-147.17;100.00;-15917.19;5063638;28;50846;-43
2022/10/23 01:31:46;;;;;;;;;4.00;4.00;;;;;-147.17;100.00;-15917.19;5072155;28;51140;-43
2022/10/23 01:34:15;;;;;;;;;5.00;5.00;;;;;-147.17;100.00;-15917.19;5068697;28;50948;-43
2022/10/23 01:36:45;;;;;;;;;5.00;5.00;;;;;-147.17;100.00;-15917.19;5065703;28;51246;-41
2022/10/23 01:39:16;;;;;;;;;4.00;4.00;;;;;-147.17;100.00;-15917.19;5056125;28;51043;-43
2022/10/23 01:41:47;;;;;;;;;5.00;4.00;;;;;-147.17;100.00;-15917.19;5074899;28;51229;-42
2022/10/23 01:44:21;;;;;;;;;4.00;4.00;;;;;-147.17;100.00;-15917.19;5072966;28;51030;-45
2022/10/23 01:46:50;;;;;;;;;3.00;3.00;;;;;-147.17;100.00;-15917.19;5072102;27;51455;-41
2022/10/23 01:49:18;;;;;;;;;3.00;2.67;;;;;-147.17;100.00;-15917.19;5068733;28;51458;-41
2022/10/23 01:51:48;;;;;;;;;4.00;4.00;;;;;-147.17;100.00;-15917.19;5074036;27;51984;-42
2022/10/23 01:54:18;;;;;;;;;4.00;3.33;;;;;-147.17;100.00;-15917.19;5074037;28;51378;-41
2022/10/23 01:56:47;;;;;;;;;3.67;3.67;;;;;-147.17;100.00;-15917.19;5073229;28;51153;-41
2022/10/23 01:59:19;;;;;;;;;2.67;2.67;;;;;-147.17;100.00;-15917.19;5073770;28;51321;-41
2022/10/23 02:01:48;;;;;;;;;5.00;3.00;;;;;-147.17;100.00;-15917.19;5073035;28;51294;-41
2022/10/23 02:04:20;;;;;;;;;4.00;4.00;;;;;-147.17;100.00;-15917.19;5074223;28;51200;-41
2022/10/23 02:06:45;;;;;;;;;3.00;3.00;;;;;-147.17;100.00;-15917.19;5073359;28;50822;-41
2022/10/23 02:09:10;;;;;;;;;3.33;3.00;;;;;-147.17;100.00;-15917.19;5074484;28;51173;-41
2022/10/23 02:11:46;;;;;;;;;5.00;4.33;;;;;-147.17;100.00;-15917.19;5072924;28;51058;-42
2022/10/23 02:14:39;;;;;;;;;3.33;3.33;;;;;-147.17;100.00;-15917.19;5071991;28;51058;-41
2022/10/23 02:17:19;;;;;;;;;5.00;4.00;;;;;-147.17;100.00;-15917.19;5072967;28;51039;-41
2022/10/23 02:19:54;;;;;;;;;5.00;4.00;;;;;-147.17;100.00;-15917.19;5074896;28;50967;-42
2022/10/23 02:22:26;;;;;;;;;3.00;3.00;;;;;-147.17;100.00;-15917.19;5073287;28;51089;-42
2022/10/23 02:25:21;;;;;;;;;4.33;4.00;;;;;-147.17;100.00;-15917.19;5068492;28;51070;-42
2022/10/23 02:27:52;;;;;;;;;5.00;4.67;;;;;-147.17;100.00;-15917.19;5073550;27;50873;-42
2022/10/23 02:30:18;;;;;;;;;4.67;4.00;;;;;-147.17;100.00;-15917.19;5056025;28;51173;-42
2022/10/23 02:32:48;;;;;;;;;3.67;3.33;;;;;-147.17;100.00;-15917.19;5072793;28;51722;-42
2022/10/23 02:35:13;;;;;;;;;4.00;4.00;;;;;-147.17;100.00;-15917.19;5076674;27;50930;-42
2022/10/23 02:37:39;;;;;;;;;4.00;4.00;;;;;-147.17;100.00;-15917.19;5075158;27;51118;-43
2022/10/23 02:40:06;;;;;;;;;5.00;5.00;;;;;-147.17;100.00;-15917.19;5068409;28;51986;-41
2022/10/23 02:42:38;;;;;;;;;4.33;4.33;;;;;-147.17;100.00;-15917.19;5054754;28;51302;-41
2022/10/23 02:45:38;;;;;;;;;6.67;5.67;;;;;-147.17;100.00;-15917.19;5068866;28;52721;-42
2022/10/23 02:48:16;;;;;;;;;4.00;3.67;;;;;-147.17;100.00;-15917.19;5067110;28;51158;-43
2022/10/23 02:51:04;;;;;;;;;6.00;4.33;;;;;-147.17;100.00;-15917.19;5073896;28;51484;-44
2022/10/23 02:53:40;;;;;;;;;4.33;3.67;;;;;-147.17;100.00;-15917.19;5065863;28;52179;-42
2022/10/23 02:56:20;;;;;;;;;5.00;5.00;;;;;-147.17;100.00;-15917.19;5073302;28;51279;-43
2022/10/23 02:59:34;;;;;;;;;4.67;4.33;;;;;-147.17;100.00;-15917.19;5066352;27;51301;-43
2022/10/23 03:02:17;;;;;;;;;4.00;4.00;;;;;-147.17;100.00;-15917.19;5072616;27;51119;-41
2022/10/23 03:04:44;;;;;;;;;6.00;6.00;;;;;-147.17;100.00;-15917.19;5073024;27;52530;-41
2022/10/23 03:07:13;;;;;;;;;1.33;1.33;;;;;-147.17;100.00;-15917.19;5072533;27;50937;-43
2022/10/23 03:09:39;;;;;;;;;4.67;4.00;;;;;-147.17;100.00;-15917.19;5074089;28;51212;-40
2022/10/23 03:12:04;;;;;;;;;5.00;5.00;;;;;-147.17;100.00;-15917.19;5073409;27;51023;-41
2022/10/23 03:14:30;;;;;;;;;4.00;4.00;;;;;-147.17;100.00;-15917.19;5068945;28;52110;-41
2022/10/23 03:16:55;;;;;;;;;3.33;3.33;;;;;-147.17;100.00;-15917.19;5072105;28;51192;-43
2022/10/23 03:19:20;;;;;;;;;6.33;4.33;;;;;-147.17;100.00;-15917.19;5070325;27;50975;-42
2022/10/23 03:21:46;;;;;;;;;6.00;5.00;;;;;-147.17;100.00;-15917.19;5073363;28;51182;-47
2022/10/23 03:24:11;;;;;;;;;5.67;5.67;;;;;-147.17;100.00;-15917.19;5073050;28;56889;-41
2022/10/23 03:26:36;;;;;;;;;4.00;3.00;;;;;-147.17;100.00;-15917.19;5074209;28;51083;-41
2022/10/23 03:29:01;;;;;;;;;4.00;4.00;;;;;-147.17;100.00;-15917.19;5070302;28;51131;-41
2022/10/23 03:31:27;;;;;;;;;6.00;6.00;;;;;-147.17;100.00;-15917.19;5065938;27;51265;-41
2022/10/23 03:33:52;;;;;;;;;3.00;3.00;;;;;-147.17;100.00;-15917.19;5072915;28;51650;-42
2022/10/23 03:36:17;;;;;;;;;5.00;5.00;;;;;-147.17;100.00;-15917.19;5074301;27;51147;-43
2022/10/23 03:38:43;;;;;;;;;5.33;5.33;;;;;-147.17;100.00;-15917.19;5070197;28;51269;-41
2022/10/23 03:41:08;;;;;;;;;6.00;5.33;;;;;-147.17;100.00;-15917.19;5071326;28;51318;-43
2022/10/23 03:43:33;;;;;;;;;5.00;5.00;;;;;-147.17;100.00;-15917.19;5071361;28;51853;-42
2022/10/23 03:46:00;;;;;;;;;5.00;5.00;;;;;-147.17;100.00;-15917.19;5053775;28;51082;-42
2022/10/23 03:48:25;;;;;;;;;6.00;5.00;;;;;-147.17;100.00;-15917.19;5068582;28;51170;-42
2022/10/23 03:50:51;;;;;;;;;6.00;5.00;;;;;-147.17;100.00;-15917.19;5074762;27;51054;-41
2022/10/23 03:53:17;;;;;;;;;5.00;5.00;;;;;-147.17;100.00;-15917.19;5069769;28;51039;-42
2022/10/23 03:55:43;;;;;;;;;5.67;4.67;;;;;-147.17;100.00;-15917.19;5072063;28;51000;-41
2022/10/23 03:58:08;;;;;;;;;5.67;5.33;;;;;-147.17;100.00;-15917.19;5071071;28;51122;-42
2022/10/23 04:00:34;;;;;;;;;6.33;5.00;;;;;-147.17;100.00;-15917.19;5070209;28;51143;-42
2022/10/23 04:02:59;;;;;;;;;5.00;5.00;;;;;-147.17;100.00;-15917.19;5076084;27;59097;-42
2022/10/23 04:05:24;;;;;;;;;5.00;5.00;;;;;-147.17;100.00;-15917.19;5072833;28;51106;-43
2022/10/23 04:07:50;;;;;;;;;5.00;5.00;;;;;-147.17;100.00;-15917.19;5071572;28;51162;-41
2022/10/23 04:10:15;;;;;;;;;5.00;5.00;;;;;-147.17;100.00;-15917.19;5055073;28;51309;-42
2022/10/23 04:12:40;;;;;;;;;9.00;7.33;;;;;-147.17;100.00;-15917.19;5046658;28;51892;-42
2022/10/23 04:15:06;;;;;;;;;5.00;5.00;;;;;-147.17;100.00;-15917.19;5068557;28;51027;-42
2022/10/23 04:17:32;;;;;;;;;4.00;4.00;;;;;-147.17;100.00;-15917.19;5070107;28;51131;-40
2022/10/23 04:19:57;;;;;;;;;6.00;5.00;;;;;-147.17;100.00;-15917.19;5057515;27;52029;-42
2022/10/23 04:22:22;;;;;;;;;7.67;7.00;;;;;-147.17;100.00;-15917.19;5067227;27;51304;-42
2022/10/23 04:24:47;;;;;;;;;6.67;5.67;;;;;-147.17;100.00;-15917.19;5072870;28;50953;-41
2022/10/23 04:27:13;;;;;;;;;5.67;5.67;;;;;-147.17;100.00;-15917.19;5053008;28;51091;-42
2022/10/23 04:29:39;;;;;;;;;5.00;5.00;;;;;-147.17;100.00;-15917.19;5071316;28;51643;-42
2022/10/23 04:32:06;;;;;;;;;5.00;5.00;;;;;-147.17;100.00;-15917.19;5074146;27;52920;-41
2022/10/23 04:34:31;;;;;;;;;4.00;4.00;;;;;-147.17;100.00;-15917.19;5072430;28;50906;-42
2022/10/23 04:36:57;;;;;;;;;6.00;4.00;;;;;-147.17;100.00;-15917.19;5070972;28;51003;-41
2022/10/23 04:39:22;;;;;;;;;6.00;6.00;;;;;-147.17;100.00;-15917.19;5072524;28;51054;-41
2022/10/23 04:41:47;;;;;;;;;6.00;5.00;;;;;-147.17;100.00;-15917.19;5069548;28;51096;-43
2022/10/23 04:44:13;;;;;;;;;6.00;6.00;;;;;-147.17;100.00;-15917.19;5071068;28;51292;-42
2022/10/23 04:46:38;;;;;;;;;6.00;6.00;;;;;-147.17;100.00;-15917.19;5072243;28;51142;-43
2022/10/23 04:49:04;;;;;;;;;4.00;4.00;;;;;-147.17;100.00;-15917.19;5065145;27;51317;-43
2022/10/23 04:51:29;;;;;;;;;8.33;6.33;;;;;-147.17;100.00;-15917.19;5069855;27;51108;-42
2022/10/23 04:53:54;;;;;;;;;7.00;6.33;;;;;-147.17;100.00;-15917.19;5062647;28;51089;-42
2022/10/23 04:56:19;;;;;;;;;9.00;7.67;;;;;-147.17;100.00;-15917.19;5056825;28;51325;-42
2022/10/23 04:58:45;;;;;;;;;5.33;5.00;;;;;-147.17;100.00;-15917.19;5070169;28;51874;-42
2022/10/23 05:01:10;;;;;;;;;6.67;5.67;;;;;-147.17;100.00;-15917.19;5070000;28;51728;-42
2022/10/23 05:03:36;;;;;;;;;6.33;5.33;;;;;-147.17;100.00;-15917.19;5071857;28;51007;-42
2022/10/23 05:06:03;;;;;;;;;5.00;5.00;;;;;-147.17;100.00;-15917.19;5071634;28;51079;-42
2022/10/23 05:08:28;;;;;;;;;6.67;6.00;;;;;-147.17;100.00;-15917.19;5067871;28;51365;-42
2022/10/23 05:10:53;;;;;;;;;7.00;6.00;;;;;-147.17;100.00;-15917.19;5070082;28;51685;-41
2022/10/23 05:13:19;;;;;;;;;7.00;5.00;;;;;-147.17;100.00;-15917.19;5069213;28;50922;-42
2022/10/23 05:15:47;;;;;;;;;8.33;6.33;;;;;-147.17;100.00;-15917.19;5071506;28;51139;-42
2022/10/23 05:18:18;;;;;;;;;6.00;5.33;;;;;-147.17;100.00;-15917.19;5071544;28;51400;-42
2022/10/23 05:20:45;;;;;;;;;6.00;5.33;;;;;-147.17;100.00;-15917.19;5045603;28;53395;-42
2022/10/23 05:23:14;;;;;;;;;9.67;8.00;;;;;-147.17;100.00;-15917.19;5063266;28;51056;-43
2022/10/23 05:25:40;;;;;;;;;6.00;5.00;;;;;-147.17;100.00;-15917.19;5068330;27;51124;-42
2022/10/23 05:28:05;;;;;;;;;7.67;6.00;;;;;-147.17;100.00;-15917.19;5067805;28;51183;-41
2022/10/23 05:30:32;;;;;;;;;5.67;5.33;;;;;-147.17;100.00;-15917.19;5067830;28;53267;-42
2022/10/23 05:33:00;;;;;;;;;7.00;6.00;;;;;-147.17;100.00;-15917.19;5069256;28;51102;-42
2022/10/23 05:35:26;;;;;;;;;7.00;6.00;;;;;-147.17;100.00;-15917.19;5076471;27;50969;-42
2022/10/23 05:37:54;;;;;;;;;9.00;7.33;;;;;-147.17;100.00;-15917.19;5071967;27;51023;-42
2022/10/23 05:40:20;;;;;;;;;7.00;7.00;;;;;-147.17;100.00;-15917.19;5052111;28;51901;-42
2022/10/23 05:42:45;;;;;;;;;9.33;8.00;;;;;-147.17;100.00;-15917.19;5069743;28;51099;-44
2022/10/23 05:45:10;;;;;;;;;8.00;7.00;;;;;-147.17;100.00;-15917.19;5067244;28;55118;-40
2022/10/23 05:47:36;;;;;;;;;7.00;6.00;;;;;-147.17;100.00;-15917.19;5069855;28;51213;-42
2022/10/23 05:50:01;;;;;;;;;5.00;5.00;;;;;-147.17;100.00;-15917.19;5059728;27;54184;-42
2022/10/23 05:52:26;;;;;;;;;8.33;6.33;;;;;-147.17;100.00;-15917.19;5054704;27;51360;-41
2022/10/23 05:54:52;;;;;;;;;5.33;5.33;;;;;-147.17;100.00;-15917.19;5044708;28;51860;-42
2022/10/23 05:57:18;;;;;;;;;8.00;8.00;;;;;-147.17;100.00;-15917.19;5069218;28;51060;-41
2022/10/23 05:59:43;;;;;;;;;8.00;7.67;;;;;-147.17;100.00;-15917.19;5059335;27;52722;-42
2022/10/23 06:02:09;;;;;;;;;6.00;6.00;;;;;-147.17;100.00;-15917.19;5056576;28;54196;-42
2022/10/23 06:04:34;;;;;;;;;7.00;6.33;;;;;-147.17;100.00;-15917.19;5057830;27;51670;-42
2022/10/23 06:07:00;;;;;;;;;7.00;7.00;;;;;-147.17;100.00;-15917.19;5068203;27;51196;-43
2022/10/23 06:09:25;;;;;;;;;9.00;8.00;;;;;-147.17;100.00;-15917.19;5068317;27;51936;-42
2022/10/23 06:11:51;;;;;;;;;9.00;7.33;;;;;-147.17;100.00;-15917.19;5065687;28;51212;-42
2022/10/23 06:14:16;;;;;;;;;6.67;6.00;;;;;-147.17;100.00;-15917.19;5056105;27;51094;-42
2022/10/23 06:16:42;;;;;;;;;7.67;7.33;;;;;-147.17;100.00;-15917.19;5068130;27;51094;-50
2022/10/23 06:19:11;;;;;;;;;7.33;7.33;;;;;-147.17;100.00;-15917.19;5044021;27;52834;-41
2022/10/23 06:21:37;;;;;;;;;11.00;9.00;;;;;-147.17;100.00;-15917.19;5065066;28;51209;-42
2022/10/23 06:24:04;;;;;;;;;9.00;8.67;;;;;-147.17;100.00;-15917.19;5059521;27;51275;-41
2022/10/23 06:26:29;;;;;;;;;9.33;7.67;;;;;-147.17;100.00;-15917.19;5055224;27;51172;-41
2022/10/23 06:28:55;;;;;;;;;8.00;8.00;;;;;-147.17;100.00;-15917.19;5059500;27;51988;-41
2022/10/23 06:31:25;;;;;;;;;10.67;9.00;;;;;-147.17;100.00;-15917.19;5059596;27;51230;-41
2022/10/23 06:33:51;;;;;;;;;8.00;7.33;;;;;-147.17;100.00;-15917.19;5059133;28;51240;-41
2022/10/23 06:36:16;;;;;;;;;8.67;8.67;;;;;-147.17;100.00;-15917.19;5067473;27;51390;-41
2022/10/23 06:38:42;;;;;;;;;6.67;6.00;;;;;-147.17;100.00;-15917.19;5062124;27;51765;-41
2022/10/23 06:41:12;;;;;;;;;9.00;8.33;;;;;-147.17;100.00;-15917.19;5062574;28;51042;-42
2022/10/23 06:43:38;;;;;;;;;8.00;7.67;;;;;-147.17;100.00;-15917.19;5065082;27;51213;-40
2022/10/23 06:46:03;;;;;;;;;10.33;9.00;;;;;-147.17;100.00;-15917.19;5056042;27;51074;-43
2022/10/23 06:48:30;;;;;;;;;8.67;8.00;;;;;-147.17;100.00;-15917.19;5066345;27;52320;-41
2022/10/23 06:50:55;;;;;;;;;9.33;8.33;;;;;-147.17;100.00;-15917.19;5058849;27;51134;-41
2022/10/23 06:53:23;;;;;;;;;7.67;6.67;;;;;-147.17;100.00;-15917.19;5067606;27;51429;-41
2022/10/23 06:55:49;;;;;;;;;12.00;11.00;;;;;-147.17;100.00;-15917.19;5063117;27;52097;-41
2022/10/23 06:58:14;;;;;;;;;8.00;8.00;;;;;-147.17;100.00;-15917.19;5059418;28;51636;-42
2022/10/23 07:00:40;;;;;;;;;9.00;8.00;;;;;-147.17;100.00;-15917.19;5060931;28;55265;-41
2022/10/23 07:03:07;;;;;;;;;9.67;8.33;;;;;-147.17;100.00;-15917.19;5068741;27;51499;-41
2022/10/23 07:05:33;;;;;;;;;5.67;5.67;;;;;-147.17;100.00;-15917.19;5067065;27;51573;-41
2022/10/23 07:07:59;;;;;;;;;7.67;7.00;;;;;-147.17;100.00;-15917.19;5063646;27;51214;-43
2022/10/23 07:10:24;;;;;;;;;9.00;7.67;;;;;-147.17;100.00;-15917.19;5060852;27;51171;-43
2022/10/23 07:12:50;;;;;;;;;10.00;9.00;;;;;-147.17;100.00;-15917.19;5070978;27;53712;-43
2022/10/23 07:15:15;;;;;;;;;8.33;7.00;;;;;-147.17;100.00;-15917.19;5064445;27;51345;-43
2022/10/23 07:17:40;;;;;;;;;9.00;8.67;;;;;-147.17;100.00;-15917.19;5072875;28;51964;-43
2022/10/23 07:20:06;;;;;;;;;9.00;8.00;;;;;-147.17;100.00;-15917.19;5048710;28;51715;-42
2022/10/23 07:22:32;;;;;;;;;10.33;10.00;;;;;-147.17;100.00;-15917.19;5066675;28;51249;-42
2022/10/23 07:24:57;;;;;;;;;10.00;9.00;;;;;-147.17;100.00;-15917.19;5050834;28;53035;-42
2022/10/23 07:27:23;;;;;;;;;9.00;9.00;;;;;-147.17;100.00;-15917.19;5063545;28;51673;-41
2022/10/23 07:29:50;;;;;;;;;11.00;11.00;;;;;-147.17;100.00;-15917.19;5063546;27;51330;-41
2022/10/23 07:32:15;;;;;;;;;10.00;10.00;;;;;-147.17;100.00;-15917.19;5064054;28;51353;-42
2022/10/23 07:34:40;;;;;;;;;9.00;9.00;;;;;-147.17;100.00;-15917.19;5067740;28;51106;-42
2022/10/23 07:37:06;;;;;;;;;9.33;9.00;;;;;-147.17;100.00;-15917.19;5068408;27;51115;-42
2022/10/23 07:39:31;;;;;;;;;10.67;9.67;;;;;-147.17;100.00;-15917.19;5063468;28;51260;-42
2022/10/23 07:41:57;;;;;;;;;10.67;10.00;;;;;-147.17;100.00;-15917.19;5066411;27;51131;-42
2022/10/23 07:44:22;;;;;;;;;8.00;8.00;;;;;-147.17;100.00;-15917.19;5064949;27;51382;-42
2022/10/23 07:46:47;;;;;;;;;12.00;11.33;;;;;-147.17;100.00;-15917.19;5063426;27;51739;-42
2022/10/23 07:49:13;;;;;;;;;10.00;9.67;;;;;-147.17;100.00;-15917.19;5056493;27;51311;-43
2022/10/23 07:51:38;;;;;;;;;10.67;10.67;;;;;-147.17;100.00;-15917.19;5073129;28;51120;-42
2022/10/23 07:54:03;;;;;;;;;11.33;11.33;;;;;-147.17;100.00;-15917.19;5064740;27;51838;-42
2022/10/23 07:56:29;;;;;;;;;11.33;11.33;;;;;-147.17;100.00;-15917.19;5042555;28;51218;-43
2022/10/23 07:58:55;;;;;;;;;11.67;11.67;;;;;-147.17;100.00;-15917.19;5064897;28;51039;-41
2022/10/23 08:01:32;;;;;;;;;10.33;10.00;;;;;-147.17;100.00;-15917.19;5064760;28;51110;-41
2022/10/23 08:03:58;;;;;;;;;10.00;9.00;;;;;-147.17;100.00;-15917.19;5051060;28;51080;-41
2022/10/23 08:06:23;;;;;;;;;9.00;9.00;;;;;-147.17;100.00;-15917.19;5058640;27;51802;-43
2022/10/23 08:08:48;;;;;;;;;9.00;9.00;;;;;-147.17;100.00;-15917.19;5070990;28;50926;-42
2022/10/23 08:11:16;;;;;;;;;10.67;9.67;;;;;-147.17;100.00;-15917.19;5063307;28;51755;-42
2022/10/23 08:13:42;;;;;;;;;9.00;9.00;;;;;-147.17;100.00;-15917.19;5066194;28;51168;-42
2022/10/23 08:16:08;;;;;;;;;8.67;8.00;;;;;-147.17;100.00;-15917.19;5057723;28;52031;-42
2022/10/23 08:18:33;;;;;;;;;10.00;8.67;;;;;-147.17;100.00;-15917.19;5067012;27;51579;-42
2022/10/23 08:21:01;;;;;;;;;9.00;8.67;;;;;-147.17;100.00;-15917.19;5068696;28;51157;-42
2022/10/23 08:23:27;;;;;;;;;8.67;8.00;;;;;-147.17;100.00;-15917.19;5067436;28;51008;-42
2022/10/23 08:26:00;;;;;;;;;9.67;9.00;;;;;-147.17;100.00;-15917.19;5072051;28;51998;-41
2022/10/23 08:28:27;;;;;;;;;8.00;8.00;;;;;-147.17;100.00;-15917.19;5071926;28;51097;-42
2022/10/23 08:30:53;;;;;;;;;8.00;8.00;;;;;-147.17;100.00;-15917.19;5070993;28;51282;-42
2022/10/23 08:33:19;;;;;;;;;7.67;6.67;;;;;-147.17;100.00;-15917.19;5065810;28;51153;-42
2022/10/23 08:35:45;;;;;;;;;8.00;7.00;;;;;-147.17;100.00;-15917.19;5066899;27;52862;-43
2022/10/23 08:38:10;;;;;;;;;9.67;7.33;;;;;-147.17;100.00;-15917.19;5070816;28;51345;-42
2022/10/23 08:40:36;;;;;;;;;6.67;6.33;;;;;-147.17;100.00;-15917.19;5071283;28;50991;-43
2022/10/23 08:43:10;;;;;;;;;5.67;5.67;;;;;-147.17;100.00;-15917.19;5070527;28;51222;-42
2022/10/23 08:45:43;;;;;;;;;7.67;7.33;;;;;-147.17;100.00;-15917.19;5071838;28;52379;-42
2022/10/23 08:48:18;;;;;;;;;8.00;8.00;;;;;-147.17;100.00;-15917.19;5071612;27;51020;-42
2022/10/23 08:50:54;;;;;;;;;6.00;6.00;;;;;-147.17;100.00;-15917.19;5053361;28;51068;-42
2022/10/23 08:53:28;;;;;;;;;6.00;6.00;;;;;-147.17;100.00;-15917.19;5070204;28;51431;-42
2022/10/23 08:56:02;;;;;;;;;7.00;6.67;;;;;-147.17;100.00;-15917.19;5056721;27;51809;-42
2022/10/23 08:58:41;;;;;;;;;8.00;8.00;;;;;-147.17;100.00;-15917.19;5069105;28;51061;-42
2022/10/23 09:01:41;;;;;;;;;8.00;7.33;;;;;-147.17;100.00;-15917.19;5063310;28;51103;-41
2022/10/23 09:04:11;;;;;;;;;9.33;8.00;;;;;-147.17;100.00;-15917.19;5064158;28;51277;-43
2022/10/23 09:06:48;;;;;;;;;11.00;10.00;;;;;-147.17;100.00;-15917.19;5069619;28;52175;-42
2022/10/23 09:09:38;;;;;;;;;10.00;9.00;;;;;-147.17;100.00;-15917.19;5063988;27;51242;-43
2022/10/23 09:12:10;;;;;;;;;8.00;7.33;;;;;-147.17;100.00;-15917.19;5064830;27;51157;-42
2022/10/23 09:14:54;;;;;;;;;8.33;8.00;;;;;-147.17;100.00;-15917.19;5068104;27;51170;-43
2022/10/23 09:17:25;;;;;;;;;11.00;10.00;;;;;-147.17;100.00;-15917.19;5064276;27;51805;-43
2022/10/23 09:20:00;;;;;;;;;8.67;8.67;;;;;-147.17;100.00;-15880.91;5057115;27;51146;-43
2022/10/23 09:22:27;;;;;;;;;7.67;7.33;;;;;-147.17;100.00;-11655.75;5067605;27;51146;-43
2022/10/23 09:24:52;;;;;;;;;6.33;6.00;;;;;-147.17;100.00;-7813.81;5067523;27;51439;-41
2022/10/23 09:27:18;;;;;;;;;8.33;7.67;;;;;-147.17;100.00;-6970.09;5054017;27;61314;-41
2022/10/23 09:29:49;;;;;;;;;8.00;7.00;;;;;-147.17;100.00;-6838.19;5064884;27;51357;-42
2022/10/23 09:32:14;;;;;;;;;9.00;8.00;;;;;-147.17;100.00;-13608.19;5049886;28;52697;-43
2022/10/23 09:34:52;;;;;;;;;9.00;9.00;;;;;-147.17;100.00;-10902.00;5070058;27;51129;-43
2022/10/23 09:37:23;;;;;;;;;8.00;7.67;;;;;-147.17;100.00;-15267.34;5047177;28;54509;-43
2022/10/23 09:40:01;;;;;;;;;11.67;8.67;;;;;-147.17;100.00;-15482.19;5068434;27;51000;-43
2022/10/23 09:42:26;;;;;;;;;7.67;7.67;;;;;-147.17;100.00;-15917.19;5057907;27;51281;-43
2022/10/23 09:44:54;;;;;;;;;8.00;8.00;;;;;-147.17;100.00;-15917.19;5068818;28;51412;-42
2022/10/23 09:47:23;;;;;;;;;7.33;7.33;;;;;-147.17;100.00;-15917.19;5069069;28;52641;-42
2022/10/23 09:49:54;;;;;;;;;9.33;7.67;;;;;-147.17;100.00;-15917.19;5070604;27;51133;-41
2022/10/23 09:52:28;;;;;;;;;6.33;6.33;;;;;-147.17;100.00;-15917.19;5066300;27;51382;-42
2022/10/23 09:55:00;;;;;;;;;7.67;7.67;;;;;-147.17;100.00;-15013.78;5070868;28;51270;-42
2022/10/23 09:57:37;;;;;;;;;9.00;8.00;;;;;-147.17;100.00;-15917.19;5067770;28;52077;-42
2022/10/23 10:00:19;;;;;;;;;7.00;7.00;;;;;-147.17;100.00;-15917.19;5063393;27;51329;-42
2022/10/23 10:03:20;;;;;;;;;6.00;5.67;;;;;-147.17;100.00;-15917.19;5046685;28;51467;-42
2022/10/23 10:06:00;;;;;;;;;8.00;7.67;;;;;-147.17;100.00;-15917.19;5056347;27;51771;-42
2022/10/23 10:08:43;;;;;;;;;6.00;6.00;;;;;-147.17;100.00;-15917.19;5071625;28;51970;-42
2022/10/23 10:11:24;;;;;;;;;6.33;5.33;;;;;-147.17;100.00;-15917.19;5070322;27;51038;-43
2022/10/23 10:13:59;;;;;;;;;8.00;7.00;;;;;-147.17;100.00;-15917.19;5068012;27;51108;-42
2022/10/23 10:16:41;;;;;;;;;7.67;7.00;;;;;-147.17;100.00;-15917.19;5064679;27;51378;-43
2022/10/23 10:19:22;;;;;;;;;6.33;6.00;;;;;-147.17;100.00;-15917.19;5065942;27;51878;-42
2022/10/23 10:22:19;;;;;;;;;5.33;5.00;;;;;-147.17;100.00;-15917.19;5062261;27;51491;-42
2022/10/23 10:25:00;;;;;;;;;7.00;7.00;;;;;-147.17;100.00;-15917.19;5048677;27;51173;-41
2022/10/23 10:27:49;;;;;;;;;6.00;6.00;;;;;-147.17;100.00;-15917.19;5069710;28;51119;-42
2022/10/23 10:30:24;;;;;;;;;7.00;6.67;;;;;-147.17;100.00;-15917.19;5066537;28;51203;-42
2022/10/23 10:33:13;;;;;;;;;7.67;6.00;;;;;-147.17;100.00;-15917.19;5049704;28;51096;-42
2022/10/23 10:36:07;;;;;;;;;4.67;4.67;;;;;-147.17;100.00;-15917.19;5068611;28;51235;-44
2022/10/23 10:38:39;;;;;;;;;8.00;7.33;;;;;-147.17;100.00;-15917.19;5061119;27;52013;-43
2022/10/23 10:41:07;;;;;;;;;7.00;6.00;;;;;-147.17;100.00;-15917.19;5067172;28;51424;-42
2022/10/23 10:44:06;;;;;;;;;8.67;8.67;;;;;-147.17;100.00;-15917.19;5070034;28;51420;-42
2022/10/23 10:47:09;;;;;;;;;7.00;6.33;;;;;-147.17;100.00;-15917.19;5067575;27;50968;-42
2022/10/23 10:49:41;;;;;;;;;8.33;8.33;;;;;-147.17;100.00;-15917.19;5070587;28;51053;-42
2022/10/23 10:52:15;;;;;;;;;8.00;7.00;;;;;-147.17;100.00;-15917.19;5066659;27;52072;-41
2022/10/23 10:55:00;;;;;;;;;8.33;8.33;;;;;-147.17;100.00;-15917.19;5065513;27;51241;-42
2022/10/23 10:57:56;;;;;;;;;7.33;7.00;;;;;-147.17;100.00;-15917.19;5069436;28;51161;-42
2022/10/23 11:00:22;;;;;;;;;5.33;5.33;;;;;-147.17;100.00;-15917.19;5065389;28;51046;-43
2022/10/23 11:02:57;;;;;;;;;6.00;5.33;;;;;-147.17;100.00;-15917.19;5064673;27;52716;-43
2022/10/23 11:05:45;;;;;;;;;11.00;11.00;;;;;-147.17;100.00;-15917.19;5067082;27;51261;-42
2022/10/23 11:08:28;;;;;;;;;5.33;5.33;;;;;-147.17;100.00;-15917.19;5069785;27;51008;-42
2022/10/23 11:11:02;;;;;;;;;7.00;7.00;;;;;-147.17;100.00;-15917.19;5066885;27;51055;-41
2022/10/23 11:13:39;;;;;;;;;6.00;6.00;;;;;-147.17;100.00;-15917.19;5070365;28;51182;-43